Time;durP1;ratioP1;P1;durP2;ratioP2;P2;SDS_P1;SDS_P2;PMS_P1;PMS_P2;Temp;Humidity;BMP_temperature;BMP_pressure;BME280_temperature;BME280_humidity;BME280_pressure;Samples;Min_cycle;Max_cycle;Signal;HPM_P1;HPM_P2
2022/11/13 00:00:44;;;;;;;52.67;31.02;;;;;;;;;;5047369;28;20009;-94
2022/11/13 00:03:11;;;;;;;74.82;37.97;;;;;;;;;;5051154;28;20037;-95
2022/11/13 00:05:37;;;;;;;59.85;32.30;;;;;;;;;;5035495;28;20060;-95
2022/11/13 00:08:03;;;;;;;60.10;33.75;;;;;;;;;;5034154;28;20029;-95
2022/11/13 00:10:29;;;;;;;60.40;33.65;;;;;;;;;;5034375;28;20021;-96
2022/11/13 00:12:55;;;;;;;64.72;34.28;;;;;;;;;;5035146;28;20120;-95
2022/11/13 00:15:22;;;;;;;52.97;32.95;;;;;;;;;;5033774;28;20021;-95
2022/11/13 00:17:48;;;;;;;59.47;34.38;;;;;;;;;;5034101;28;20056;-95
2022/11/13 00:20:14;;;;;;;74.80;39.85;;;;;;;;;;5034168;28;20068;-95
2022/11/13 00:22:41;;;;;;;84.38;43.65;;;;;;;;;;5033667;28;20067;-96
2022/11/13 00:25:13;;;;;;;76.85;41.88;;;;;;;;;;5033784;28;20470;-96
2022/11/13 00:27:39;;;;;;;71.53;38.88;;;;;;;;;;5033439;28;20449;-95
2022/11/13 00:30:06;;;;;;;61.80;36.53;;;;;;;;;;5033870;28;20117;-95
2022/11/13 00:32:32;;;;;;;71.13;39.92;;;;;;;;;;5033392;28;20049;-96
2022/11/13 00:34:58;;;;;;;74.63;43.00;;;;;;;;;;5033805;28;20033;-96
2022/11/13 00:37:24;;;;;;;62.40;38.80;;;;;;;;;;5033725;28;20048;-96
2022/11/13 00:39:50;;;;;;;89.25;47.10;;;;;;;;;;5033725;28;20025;-96
2022/11/13 00:42:17;;;;;;;83.80;43.83;;;;;;;;;;5034610;28;20029;-95
2022/11/13 00:44:43;;;;;;;92.78;47.33;;;;;;;;;;5034217;28;20045;-96
2022/11/13 00:47:09;;;;;;;82.95;45.85;;;;;;;;;;5033705;28;20029;-95
2022/11/13 00:49:41;;;;;;;82.40;43.53;;;;;;;;;;5033205;28;20029;-96
2022/11/13 00:52:07;;;;;;;77.47;42.20;;;;;;;;;;5033474;28;20053;-96
2022/11/13 00:54:33;;;;;;;81.88;44.75;;;;;;;;;;5033064;28;20028;-96
2022/11/13 00:56:59;;;;;;;81.88;44.78;;;;;;;;;;5033221;28;20052;-94
2022/11/13 00:59:25;;;;;;;117.55;60.08;;;;;;;;;;5032967;28;20022;-95
2022/11/13 01:01:52;;;;;;;126.45;61.58;;;;;;;;;;5033220;28;20075;-95
2022/11/13 01:04:18;;;;;;;109.60;51.75;;;;;;;;;;5032941;28;20037;-96
2022/11/13 01:06:44;;;;;;;109.72;52.92;;;;;;;;;;5033416;28;20061;-96
2022/11/13 01:09:11;;;;;;;120.35;58.83;;;;;;;;;;5032583;28;20497;-96
2022/11/13 01:11:37;;;;;;;112.65;55.42;;;;;;;;;;5033005;28;20029;-95
2022/11/13 01:14:03;;;;;;;101.20;51.92;;;;;;;;;;5033601;28;20074;-95
2022/11/13 01:16:29;;;;;;;115.40;59.65;;;;;;;;;;5033111;28;20434;-95
2022/11/13 01:18:55;;;;;;;121.65;60.13;;;;;;;;;;5032960;28;20029;-95
2022/11/13 01:21:26;;;;;;;119.60;56.30;;;;;;;;;;5032997;28;20036;-96
2022/11/13 01:23:53;;;;;;;96.57;50.80;;;;;;;;;;5032907;28;20034;-95
2022/11/13 01:26:21;;;;;;;95.97;49.13;;;;;;;;;;5033310;28;20501;-95
2022/11/13 01:28:47;;;;;;;92.75;50.38;;;;;;;;;;5032898;28;20127;-96
2022/11/13 01:31:15;;;;;;;88.00;48.42;;;;;;;;;;5034000;28;20413;-96
2022/11/13 01:33:42;;;;;;;78.75;46.65;;;;;;;;;;5036212;28;20092;-95
2022/11/13 01:36:10;;;;;;;101.07;53.80;;;;;;;;;;5037742;28;20057;-96
2022/11/13 01:38:36;;;;;;;103.97;54.67;;;;;;;;;;5042809;28;20025;-96
2022/11/13 01:41:03;;;;;;;103.05;54.42;;;;;;;;;;5036585;28;20025;-95
2022/11/13 01:43:31;;;;;;;118.70;59.55;;;;;;;;;;5035995;28;20386;-96
2022/11/13 01:45:57;;;;;;;113.55;58.45;;;;;;;;;;5036375;28;20036;-96
2022/11/13 01:48:38;;;;;;;92.78;50.83;;;;;;;;;;5037368;28;20450;-96
2022/11/13 01:51:08;;;;;;;103.68;55.85;;;;;;;;;;5036263;28;20028;-96
2022/11/13 01:53:34;;;;;;;76.53;42.17;;;;;;;;;;5035867;28;20100;-96
2022/11/13 01:56:00;;;;;;;86.25;48.15;;;;;;;;;;5036072;28;20110;-95
2022/11/13 01:58:27;;;;;;;74.85;44.28;;;;;;;;;;5035946;28;20025;-95
2022/11/13 02:00:53;;;;;;;93.15;52.97;;;;;;;;;;5037300;28;20017;-96
2022/11/13 02:03:19;;;;;;;73.22;43.97;;;;;;;;;;5040140;28;20033;-96
2022/11/13 02:05:46;;;;;;;78.53;44.08;;;;;;;;;;5039800;28;20025;-95
2022/11/13 02:08:12;;;;;;;70.43;41.65;;;;;;;;;;5039482;28;20021;-96
2022/11/13 02:10:38;;;;;;;60.67;38.03;;;;;;;;;;5040085;28;20032;-96
2022/11/13 02:13:05;;;;;;;59.15;37.22;;;;;;;;;;5039800;28;20075;-96
2022/11/13 02:15:32;;;;;;;53.25;34.38;;;;;;;;;;5039452;28;20424;-95
2022/11/13 02:18:00;;;;;;;54.45;31.80;;;;;;;;;;5039304;28;20045;-95
2022/11/13 02:20:35;;;;;;;49.45;31.63;;;;;;;;;;5039676;28;20104;-96
2022/11/13 02:23:10;;;;;;;51.20;32.95;;;;;;;;;;5039347;28;20561;-96
2022/11/13 02:25:37;;;;;;;44.00;29.65;;;;;;;;;;5039279;28;20114;-96
2022/11/13 02:28:03;;;;;;;52.78;32.22;;;;;;;;;;5039534;28;20021;-96
2022/11/13 02:30:30;;;;;;;65.10;38.25;;;;;;;;;;5039370;28;20031;-96
2022/11/13 02:32:58;;;;;;;63.53;39.60;;;;;;;;;;5035877;28;20041;-96
2022/11/13 02:35:26;;;;;;;50.63;32.35;;;;;;;;;;5036333;28;20022;-96
2022/11/13 02:37:54;;;;;;;63.97;40.00;;;;;;;;;;5035870;28;20022;-96
2022/11/13 02:40:20;;;;;;;53.30;34.28;;;;;;;;;;5035651;28;20021;-96
2022/11/13 02:42:46;;;;;;;52.67;33.45;;;;;;;;;;5035734;28;20029;-96
2022/11/13 02:45:13;;;;;;;142.90;57.90;;;;;;;;;;5035662;28;20026;-96
2022/11/13 02:47:39;;;;;;;81.47;43.50;;;;;;;;;;5035524;28;20026;-96
2022/11/13 02:50:06;;;;;;;87.05;46.28;;;;;;;;;;5035419;28;20113;-96
2022/11/13 02:52:32;;;;;;;77.72;44.80;;;;;;;;;;5035555;28;20041;-96
2022/11/13 02:54:58;;;;;;;109.15;50.42;;;;;;;;;;5035508;28;20033;-96
2022/11/13 02:57:24;;;;;;;88.38;45.60;;;;;;;;;;5035678;28;20022;-96
2022/11/13 02:59:50;;;;;;;86.80;45.55;;;;;;;;;;5035697;28;20067;-96
2022/11/13 03:02:16;;;;;;;170.60;61.63;;;;;;;;;;5035361;28;20108;-95
2022/11/13 03:04:43;;;;;;;82.28;45.20;;;;;;;;;;5035026;28;20041;-95
2022/11/13 03:07:09;;;;;;;95.60;50.60;;;;;;;;;;5035515;28;20029;-94
2022/11/13 03:09:36;;;;;;;91.95;48.15;;;;;;;;;;5035552;28;20033;-96
2022/11/13 03:12:02;;;;;;;104.22;42.45;;;;;;;;;;5034422;28;20017;-95
2022/11/13 03:14:28;;;;;;;144.38;48.20;;;;;;;;;;5034790;28;20025;-94
2022/11/13 03:16:54;;;;;;;80.75;43.17;;;;;;;;;;5034775;28;20029;-96
2022/11/13 03:19:20;;;;;;;586.42;90.80;;;;;;;;;;5034688;28;20366;-95
2022/11/13 03:21:46;;;;;;;97.15;46.40;;;;;;;;;;5034727;28;20021;-95
2022/11/13 03:24:13;;;;;;;127.45;44.72;;;;;;;;;;5034698;28;20040;-94
2022/11/13 03:26:39;;;;;;;128.15;52.80;;;;;;;;;;5034653;28;20120;-95
2022/11/13 03:29:05;;;;;;;242.95;54.30;;;;;;;;;;5034809;28;20087;-95
2022/11/13 03:31:31;;;;;;;259.67;59.42;;;;;;;;;;5034667;28;20041;-95
2022/11/13 03:33:58;;;;;;;135.27;52.35;;;;;;;;;;5034924;28;20116;-95
2022/11/13 03:36:24;;;;;;;95.97;42.97;;;;;;;;;;5034785;28;20051;-96
2022/11/13 03:38:50;;;;;;;126.88;46.90;;;;;;;;;;5034525;28;20032;-95
2022/11/13 03:41:16;;;;;;;257.73;65.85;;;;;;;;;;5034793;28;20021;-95
2022/11/13 03:43:43;;;;;;;517.95;96.60;;;;;;;;;;5034921;28;20482;-96
2022/11/13 03:46:09;;;;;;;152.05;57.45;;;;;;;;;;5034734;28;20018;-96
2022/11/13 03:48:35;;;;;;;196.18;51.03;;;;;;;;;;5034510;28;20030;-95
2022/11/13 03:51:02;;;;;;;147.77;47.28;;;;;;;;;;5034286;28;20401;-95
2022/11/13 03:53:28;;;;;;;101.10;50.47;;;;;;;;;;5034429;28;20040;-95
2022/11/13 03:55:55;;;;;;;103.22;45.80;;;;;;;;;;5034510;28;20121;-95
2022/11/13 03:58:21;;;;;;;193.35;56.85;;;;;;;;;;5034295;28;20026;-94
2022/11/13 04:00:47;;;;;;;411.35;74.22;;;;;;;;;;5034151;28;20018;-95
2022/11/13 04:03:13;;;;;;;290.33;69.50;;;;;;;;;;5033855;28;20060;-96
2022/11/13 04:05:41;;;;;;;73.10;45.42;;;;;;;;;;5034027;28;20030;-95
2022/11/13 04:08:08;;;;;;;89.55;43.35;;;;;;;;;;5034031;28;20079;-95
2022/11/13 04:10:34;;;;;;;80.22;44.35;;;;;;;;;;5034067;28;20478;-95
2022/11/13 04:13:00;;;;;;;78.03;46.20;;;;;;;;;;5034006;28;20437;-95
2022/11/13 04:15:27;;;;;;;88.05;46.63;;;;;;;;;;5033911;28;20032;-96
2022/11/13 04:17:53;;;;;;;332.17;78.47;;;;;;;;;;5034015;28;20478;-95
2022/11/13 04:20:19;;;;;;;97.70;49.88;;;;;;;;;;5033899;28;20037;-95
2022/11/13 04:22:45;;;;;;;387.17;78.03;;;;;;;;;;5034189;28;20029;-95
2022/11/13 04:25:12;;;;;;;146.20;59.97;;;;;;;;;;5033388;28;20112;-96
2022/11/13 04:27:38;;;;;;;92.88;48.28;;;;;;;;;;5034724;28;20064;-95
2022/11/13 04:30:06;;;;;;;90.47;47.55;;;;;;;;;;5033980;28;20032;-95
2022/11/13 04:32:32;;;;;;;124.55;45.70;;;;;;;;;;5033694;28;20099;-95
2022/11/13 04:34:58;;;;;;;143.85;45.08;;;;;;;;;;5033538;28;20079;-95
2022/11/13 04:37:24;;;;;;;125.38;46.25;;;;;;;;;;5033594;28;20029;-96
2022/11/13 04:39:51;;;;;;;92.60;47.00;;;;;;;;;;5033497;28;20453;-94
2022/11/13 04:45:01;;;;;;;146.85;55.78;;;;;;;;;;5034504;28;20128;-94
2022/11/13 04:47:27;;;;;;;283.50;62.50;;;;;;;;;;5035279;28;20108;-94
2022/11/13 04:49:53;;;;;;;86.28;49.60;;;;;;;;;;5047088;28;20026;-94
2022/11/13 04:52:19;;;;;;;214.43;46.65;;;;;;;;;;5036677;28;20018;-95
2022/11/13 04:54:45;;;;;;;167.80;46.33;;;;;;;;;;5033590;28;20030;-95
2022/11/13 04:57:12;;;;;;;171.95;45.67;;;;;;;;;;5033472;28;20029;-95
2022/11/13 04:59:38;;;;;;;505.23;91.10;;;;;;;;;;5033503;28;20087;-96
2022/11/13 05:02:04;;;;;;;1017.92;158.60;;;;;;;;;;5033274;28;20066;-96
2022/11/13 05:04:30;;;;;;;229.80;54.38;;;;;;;;;;5033184;28;20456;-94
2022/11/13 05:06:56;;;;;;;364.48;79.97;;;;;;;;;;5033229;28;20025;-95
2022/11/13 05:09:22;;;;;;;272.38;52.28;;;;;;;;;;5033034;28;20025;-96
2022/11/13 05:11:49;;;;;;;264.80;54.05;;;;;;;;;;5033128;28;20025;-95
2022/11/13 05:14:15;;;;;;;352.17;72.47;;;;;;;;;;5033206;28;20032;-96
2022/11/13 05:16:41;;;;;;;163.05;53.15;;;;;;;;;;5032909;28;20037;-95
2022/11/13 05:19:07;;;;;;;243.07;53.70;;;;;;;;;;5033104;28;20056;-94
2022/11/13 05:21:37;;;;;;;196.32;50.60;;;;;;;;;;5033015;28;20128;-94
2022/11/13 05:24:15;;;;;;;709.00;138.63;;;;;;;;;;5033068;28;20045;-93
2022/11/13 05:26:41;;;;;;;356.13;82.22;;;;;;;;;;5033022;28;20025;-96
2022/11/13 05:29:07;;;;;;;904.05;166.90;;;;;;;;;;5032999;28;20056;-95
2022/11/13 05:31:33;;;;;;;210.48;65.93;;;;;;;;;;5033014;28;20045;-95
2022/11/13 05:33:59;;;;;;;288.08;76.72;;;;;;;;;;5033434;28;20470;-94
2022/11/13 05:36:26;;;;;;;808.08;148.27;;;;;;;;;;5035379;28;20100;-95
2022/11/13 05:38:52;;;;;;;135.10;63.63;;;;;;;;;;5036947;28;20049;-95
2022/11/13 05:41:19;;;;;;;583.63;113.25;;;;;;;;;;5037393;28;20029;-95
2022/11/13 05:43:45;;;;;;;177.02;66.78;;;;;;;;;;5036885;28;20549;-95
2022/11/13 05:46:15;;;;;;;151.27;54.78;;;;;;;;;;5036816;28;20540;-95
2022/11/13 05:48:41;;;;;;;232.38;58.85;;;;;;;;;;5036709;28;20049;-94
2022/11/13 05:51:18;;;;;;;308.20;79.07;;;;;;;;;;5036578;28;20029;-95
2022/11/13 05:53:45;;;;;;;738.53;139.80;;;;;;;;;;5037315;28;20025;-94
2022/11/13 05:56:15;;;;;;;374.60;103.90;;;;;;;;;;5036435;28;20029;-95
2022/11/13 05:58:42;;;;;;;201.68;64.22;;;;;;;;;;5036590;28;20021;-95
2022/11/13 06:01:22;;;;;;;834.58;146.80;;;;;;;;;;5036345;28;20068;-95
2022/11/13 06:03:48;;;;;;;381.85;97.85;;;;;;;;;;5036401;28;20041;-96
2022/11/13 06:06:16;;;;;;;218.07;62.25;;;;;;;;;;5036715;28;20053;-95
2022/11/13 06:08:42;;;;;;;291.70;86.40;;;;;;;;;;5036428;28;20029;-95
2022/11/13 06:11:10;;;;;;;178.45;62.47;;;;;;;;;;5036404;28;20110;-95
2022/11/13 06:13:36;;;;;;;158.23;52.78;;;;;;;;;;5036775;28;20071;-96
2022/11/13 06:16:07;;;;;;;153.57;68.53;;;;;;;;;;5036358;28;20054;-95
2022/11/13 06:18:43;;;;;;;135.88;66.60;;;;;;;;;;5037106;28;20029;-96
2022/11/13 06:21:17;;;;;;;192.10;57.38;;;;;;;;;;5036358;28;20025;-94
2022/11/13 06:23:43;;;;;;;90.78;54.00;;;;;;;;;;5044361;28;20045;-92
2022/11/13 06:26:14;;;;;;;109.40;53.42;;;;;;;;;;5051542;28;20041;-95
2022/11/13 06:28:40;;;;;;;436.52;87.72;;;;;;;;;;5038669;28;20022;-94
2022/11/13 06:31:11;;;;;;;90.60;50.30;;;;;;;;;;5036393;28;20037;-95
2022/11/13 06:33:38;;;;;;;218.35;70.60;;;;;;;;;;5016220;28;20049;-96
2022/11/13 06:36:05;;;;;;;190.63;69.35;;;;;;;;;;5016638;28;20030;-94
2022/11/13 06:38:35;;;;;;;809.53;140.38;;;;;;;;;;5016167;28;20025;-93
2022/11/13 06:41:04;;;;;;;599.80;121.35;;;;;;;;;;5015572;28;20120;-94
2022/11/13 06:43:31;;;;;;;222.88;65.28;;;;;;;;;;5015939;28;20072;-95
2022/11/13 06:45:57;;;;;;;140.80;55.38;;;;;;;;;;5015520;28;20532;-94
2022/11/13 06:48:33;;;;;;;;;;;;;;;;;;;;;
2022/11/13 06:51:04;;;;;;;89.80;52.85;;;;;;;;;;5017013;28;20362;-94
2022/11/13 06:53:30;;;;;;;756.35;135.32;;;;;;;;;;5015498;28;20041;-94
2022/11/13 06:55:57;;;;;;;135.85;58.33;;;;;;;;;;5015566;28;20030;-96
2022/11/13 06:58:23;;;;;;;256.63;79.53;;;;;;;;;;5015492;28;20557;-95
2022/11/13 07:00:50;;;;;;;165.07;66.68;;;;;;;;;;5017313;28;20022;-96
2022/11/13 07:03:43;;;;;;;103.55;52.97;;;;;;;;;;5018256;28;20475;-96
2022/11/13 07:06:14;;;;;;;518.40;103.00;;;;;;;;;;5003749;28;20038;-95
2022/11/13 07:08:44;;;;;;;118.05;49.47;;;;;;;;;;5000838;28;20026;-96
2022/11/13 07:11:11;;;;;;;90.80;49.00;;;;;;;;;;5000739;28;20042;-96
2022/11/13 07:13:38;;;;;;;113.65;56.53;;;;;;;;;;5016034;28;20030;-96
2022/11/13 07:16:08;;;;;;;74.95;44.53;;;;;;;;;;5000494;28;20026;-96
2022/11/13 07:18:35;;;;;;;92.63;46.95;;;;;;;;;;5015987;28;20494;-96
2022/11/13 07:21:12;;;;;;;136.00;49.10;;;;;;;;;;5017177;28;20036;-96
2022/11/13 07:23:42;;;;;;;166.18;50.13;;;;;;;;;;5017912;28;20053;-95
2022/11/13 07:26:17;;;;;;;148.77;54.47;;;;;;;;;;5017615;28;20030;-95
2022/11/13 07:28:43;;;;;;;100.28;54.08;;;;;;;;;;5018036;28;20030;-96
2022/11/13 07:31:29;;;;;;;138.35;48.63;;;;;;;;;;5015807;28;20061;-96
2022/11/13 07:34:01;;;;;;;105.82;48.58;;;;;;;;;;5036067;28;20033;-96
2022/11/13 07:36:29;;;;;;;533.13;91.50;;;;;;;;;;5206851;23;20057;-96
2022/11/13 07:39:08;;;;;;;508.92;92.60;;;;;;;;;;5061063;28;20017;-96
2022/11/13 07:41:34;;;;;;;259.33;57.67;;;;;;;;;;5061915;28;20036;-95
2022/11/13 07:44:21;;;;;;;274.13;50.20;;;;;;;;;;5057369;28;20029;-95
2022/11/13 07:47:26;;;;;;;176.13;43.22;;;;;;;;;;5036420;28;20037;-95
2022/11/13 07:49:52;;;;;;;124.60;42.92;;;;;;;;;;5019771;28;20061;-95
2022/11/13 07:52:28;;;;;;;95.78;41.65;;;;;;;;;;5019821;28;20029;-96
2022/11/13 07:55:00;;;;;;;520.90;85.07;;;;;;;;;;5018190;28;20022;-96
2022/11/13 07:57:35;;;;;;;168.45;42.53;;;;;;;;;;5019048;28;20040;-96
2022/11/13 08:00:01;;;;;;;241.48;53.67;;;;;;;;;;5025934;28;20048;-95
2022/11/13 08:05:32;;;;;;;113.55;41.22;;;;;;;;;;5004905;28;20536;-96
2022/11/13 08:10:49;;;;;;;113.78;40.92;;;;;;;;;;5038443;28;20036;-95
2022/11/13 08:13:15;;;;;;;154.90;40.88;;;;;;;;;;5019732;28;20034;-96
2022/11/13 08:15:47;;;;;;;207.40;53.90;;;;;;;;;;5022805;28;20033;-96
2022/11/13 08:18:13;;;;;;;105.60;41.88;;;;;;;;;;5048540;28;20107;-96
2022/11/13 08:23:43;;;;;;;338.90;72.88;;;;;;;;;;5065380;28;20071;-95
2022/11/13 08:37:20;;;;;;;114.82;44.88;;;;;;;;;;5525912;22;20143;-95
2022/11/13 08:39:49;;;;;;;81.25;43.08;;;;;;;;;;5035816;28;20470;-96
2022/11/13 08:44:49;;;;;;;156.63;42.20;;;;;;;;;;5061151;28;20044;-95
2022/11/13 08:47:17;;;;;;;346.90;67.30;;;;;;;;;;5060606;28;20131;-96
2022/11/13 08:49:46;;;;;;;75.57;37.83;;;;;;;;;;5540557;23;20035;-96
2022/11/13 09:23:34;;;;;;;120.72;34.10;;;;;;;;;;5481009;23;20448;-94
2022/11/13 09:26:07;;;;;;;73.50;32.90;;;;;;;;;;5034668;28;20383;-95
2022/11/13 09:35:03;;;;;;;55.75;32.33;;;;;;;;;;5017257;28;20033;-95
2022/11/13 10:06:56;;;;;;;80.20;36.80;;;;;;;;;;5189559;23;20055;-96
2022/11/13 10:16:31;;;;;;;;;;;;;;;;;;;;;
2022/11/13 11:09:59;;;;;;;54.58;35.58;;;;;;;;;;5058638;28;20048;-94
2022/11/13 11:13:13;;;;;;;77.57;43.97;;;;;;;;;;5058368;28;20033;-94
2022/11/13 11:24:35;;;;;;;47.15;32.30;;;;;;;;;;4987367;28;20054;-96
2022/11/13 11:27:24;;;;;;;65.75;42.28;;;;;;;;;;4963042;28;20030;-96
2022/11/13 11:29:59;;;;;;;56.63;37.08;;;;;;;;;;4973090;28;20034;-94
2022/11/13 11:38:39;;;;;;;53.72;35.55;;;;;;;;;;5116069;22;20064;-89
2022/11/13 11:41:27;;;;;;;62.15;39.90;;;;;;;;;;5059344;28;20026;-94
2022/11/13 11:44:00;;;;;;;52.00;35.42;;;;;;;;;;5058934;28;20032;-93
2022/11/13 11:46:30;;;;;;;51.45;36.03;;;;;;;;;;5060994;28;20063;-90
2022/11/13 11:49:10;;;;;;;48.20;34.80;;;;;;;;;;5058449;28;20024;-94
2022/11/13 11:51:39;;;;;;;55.17;38.58;;;;;;;;;;5058486;28;20028;-90
2022/11/13 11:54:11;;;;;;;57.38;39.58;;;;;;;;;;5077159;28;20103;-93
2022/11/13 11:56:58;;;;;;;57.83;39.55;;;;;;;;;;5058068;28;20024;-92
2022/11/13 11:59:30;;;;;;;53.08;37.30;;;;;;;;;;5057137;28;20021;-93
2022/11/13 12:07:41;;;;;;;62.67;42.08;;;;;;;;;;5055011;28;20303;-96
2022/11/13 12:10:26;;;;;;;59.53;40.05;;;;;;;;;;5037438;28;20029;-94
2022/11/13 12:13:04;;;;;;;54.33;39.22;;;;;;;;;;5143202;22;20088;-95
2022/11/13 12:15:30;;;;;;;50.90;37.40;;;;;;;;;;5034744;28;20055;-96
2022/11/13 12:18:09;;;;;;;52.25;39.90;;;;;;;;;;5034637;28;20056;-94
2022/11/13 12:20:39;;;;;;;50.95;38.50;;;;;;;;;;5034223;28;20075;-93
2022/11/13 12:23:12;;;;;;;52.25;39.72;;;;;;;;;;5034631;28;20453;-92
2022/11/13 12:25:44;;;;;;;62.20;45.63;;;;;;;;;;5034611;28;20537;-89
2022/11/13 12:28:17;;;;;;;57.38;42.90;;;;;;;;;;5034274;28;20109;-92
2022/11/13 12:30:47;;;;;;;61.47;43.72;;;;;;;;;;5034320;28;20072;-94
2022/11/13 12:33:32;;;;;;;57.75;41.85;;;;;;;;;;5035545;28;20029;-92
2022/11/13 12:35:58;;;;;;;62.25;44.33;;;;;;;;;;5033644;28;20029;-90
2022/11/13 12:38:38;;;;;;;51.88;39.15;;;;;;;;;;5033737;28;20032;-93
2022/11/13 12:41:26;;;;;;;49.13;38.38;;;;;;;;;;5033722;28;20030;-88
2022/11/13 12:43:58;;;;;;;57.22;42.33;;;;;;;;;;5033948;28;20033;-88
2022/11/13 12:46:32;;;;;;;58.28;45.47;;;;;;;;;;5033389;28;20021;-94
2022/11/13 12:48:59;;;;;;;52.33;41.78;;;;;;;;;;5033381;28;20354;-92
2022/11/13 12:51:46;;;;;;;51.28;39.38;;;;;;;;;;5035836;28;20462;-94
2022/11/13 12:54:12;;;;;;;44.13;36.13;;;;;;;;;;5033518;28;20021;-89
2022/11/13 12:56:38;;;;;;;45.33;36.75;;;;;;;;;;5033103;28;20033;-89
2022/11/13 12:59:17;;;;;;;52.05;40.42;;;;;;;;;;5034343;28;20071;-88
2022/11/13 13:01:45;;;;;;;45.70;38.28;;;;;;;;;;5033142;28;20045;-88
2022/11/13 13:04:37;;;;;;;53.20;43.20;;;;;;;;;;5033094;28;20132;-90
2022/11/13 13:07:25;;;;;;;62.22;48.85;;;;;;;;;;5033274;28;20036;-90
2022/11/13 13:10:09;;;;;;;55.47;42.55;;;;;;;;;;5033273;28;20049;-90
2022/11/13 13:12:57;;;;;;;53.50;38.53;;;;;;;;;;5035981;28;20056;-89
2022/11/13 13:15:23;;;;;;;65.75;46.88;;;;;;;;;;5036228;28;20028;-87
2022/11/13 13:18:00;;;;;;;53.65;39.55;;;;;;;;;;5036058;28;20051;-90
2022/11/13 13:20:32;;;;;;;53.25;37.72;;;;;;;;;;5036198;28;20461;-86
2022/11/13 13:23:00;;;;;;;54.88;40.70;;;;;;;;;;5036073;28;20035;-90
2022/11/13 13:25:31;;;;;;;52.90;40.13;;;;;;;;;;5035894;28;20033;-89
2022/11/13 13:28:20;;;;;;;63.33;45.95;;;;;;;;;;5053764;28;20032;-88
2022/11/13 13:31:04;;;;;;;66.43;46.08;;;;;;;;;;5035883;28;20120;-89
2022/11/13 13:33:34;;;;;;;62.60;43.67;;;;;;;;;;5035768;28;20473;-87
2022/11/13 13:36:03;;;;;;;65.28;44.88;;;;;;;;;;5036134;28;20025;-87
2022/11/13 13:38:52;;;;;;;69.53;48.03;;;;;;;;;;5036049;28;20029;-87
2022/11/13 13:41:18;;;;;;;62.35;42.17;;;;;;;;;;5025953;28;20123;-88
2022/11/13 13:44:03;;;;;;;61.33;42.30;;;;;;;;;;5035761;28;20029;-88
2022/11/13 13:46:30;;;;;;;65.85;44.55;;;;;;;;;;5053572;28;20059;-89
2022/11/13 13:49:01;;;;;;;69.88;45.38;;;;;;;;;;5035731;28;20466;-90
2022/11/13 13:51:33;;;;;;;75.85;48.72;;;;;;;;;;5035772;28;20397;-90
2022/11/13 13:54:01;;;;;;;70.15;46.92;;;;;;;;;;5036234;28;20021;-89
2022/11/13 13:56:27;;;;;;;78.90;50.05;;;;;;;;;;5036455;28;20036;-91
2022/11/13 13:58:54;;;;;;;87.75;55.45;;;;;;;;;;5057376;28;20108;-89
2022/11/13 14:01:31;;;;;;;67.38;43.15;;;;;;;;;;5039418;28;20033;-87
2022/11/13 14:04:13;;;;;;;72.88;47.45;;;;;;;;;;5039765;28;20044;-89
2022/11/13 14:06:58;;;;;;;72.43;47.47;;;;;;;;;;5040036;28;20048;-88
2022/11/13 14:09:26;;;;;;;67.07;44.15;;;;;;;;;;5040407;28;20028;-89
2022/11/13 14:11:59;;;;;;;67.43;43.35;;;;;;;;;;5039675;28;20111;-90
2022/11/13 14:14:26;;;;;;;86.80;53.63;;;;;;;;;;5039693;28;20501;-89
2022/11/13 14:16:53;;;;;;;88.38;54.13;;;;;;;;;;5039414;28;20025;-89
2022/11/13 14:19:20;;;;;;;87.93;54.15;;;;;;;;;;5039366;28;20075;-88
2022/11/13 14:21:48;;;;;;;78.97;49.53;;;;;;;;;;5039406;28;20032;-90
2022/11/13 14:24:16;;;;;;;79.05;50.35;;;;;;;;;;5039292;28;20033;-90
2022/11/13 14:26:42;;;;;;;93.07;56.53;;;;;;;;;;5039424;28;20040;-88
2022/11/13 14:29:20;;;;;;;91.18;53.60;;;;;;;;;;5039278;28;20026;-89
2022/11/13 14:31:46;;;;;;;73.05;46.72;;;;;;;;;;5039397;28;20025;-88
2022/11/13 14:36:48;;;;;;;76.60;47.00;;;;;;;;;;5232256;22;20122;-89
2022/11/13 14:39:25;;;;;;;93.30;54.08;;;;;;;;;;5059252;28;20029;-90
2022/11/13 14:41:55;;;;;;;78.78;47.53;;;;;;;;;;5039462;28;20127;-88
2022/11/13 14:44:29;;;;;;;75.50;45.03;;;;;;;;;;5039216;28;20525;-92
2022/11/13 14:47:00;;;;;;;114.32;59.17;;;;;;;;;;5038672;28;20029;-92
2022/11/13 14:49:27;;;;;;;84.90;49.13;;;;;;;;;;5038844;28;20025;-93
2022/11/13 14:51:54;;;;;;;64.75;40.20;;;;;;;;;;5040826;28;20021;-92
2022/11/13 14:54:31;;;;;;;81.43;44.13;;;;;;;;;;5039389;28;20485;-90
2022/11/13 14:57:06;;;;;;;87.03;47.92;;;;;;;;;;5060032;28;20029;-91
2022/11/13 14:59:32;;;;;;;86.65;46.17;;;;;;;;;;5059231;28;20039;-89
2022/11/13 15:01:58;;;;;;;61.17;37.47;;;;;;;;;;5075162;28;20036;-90
2022/11/13 15:04:25;;;;;;;84.03;45.22;;;;;;;;;;5075099;28;20485;-90
2022/11/13 15:06:54;;;;;;;88.53;48.35;;;;;;;;;;5075083;28;20032;-91
2022/11/13 15:09:21;;;;;;;81.85;48.03;;;;;;;;;;5074825;28;20040;-91
2022/11/13 15:11:47;;;;;;;84.68;45.67;;;;;;;;;;5075041;28;20043;-93
2022/11/13 15:14:15;;;;;;;98.90;51.15;;;;;;;;;;5074918;28;20036;-91
2022/11/13 15:16:41;;;;;;;95.28;50.97;;;;;;;;;;5074971;28;20025;-90
2022/11/13 15:19:10;;;;;;;79.75;44.67;;;;;;;;;;5075145;28;20033;-92
2022/11/13 15:21:37;;;;;;;83.90;47.00;;;;;;;;;;5075169;28;20032;-91
2022/11/13 15:24:03;;;;;;;85.82;48.35;;;;;;;;;;5074704;28;20032;-92
2022/11/13 15:26:29;;;;;;;78.60;43.03;;;;;;;;;;5074968;28;20052;-90
2022/11/13 15:28:55;;;;;;;61.95;38.33;;;;;;;;;;5075122;28;20469;-91
2022/11/13 15:31:23;;;;;;;87.47;46.80;;;;;;;;;;5074897;28;20024;-92
2022/11/13 15:33:49;;;;;;;73.45;40.13;;;;;;;;;;5074646;28;20032;-92
2022/11/13 15:36:16;;;;;;;81.82;44.30;;;;;;;;;;5075012;28;20497;-91
2022/11/13 15:38:42;;;;;;;102.70;49.45;;;;;;;;;;5074583;28;20103;-91
2022/11/13 15:41:11;;;;;;;85.10;41.83;;;;;;;;;;5068239;28;20086;-90
2022/11/13 15:43:37;;;;;;;81.38;41.65;;;;;;;;;;5057665;28;20094;-92
2022/11/13 15:46:13;;;;;;;67.38;38.08;;;;;;;;;;5075995;28;20028;-95
2022/11/13 15:48:39;;;;;;;61.28;36.80;;;;;;;;;;5058769;28;20035;-95
2022/11/13 15:51:06;;;;;;;74.07;40.15;;;;;;;;;;5057984;28;20056;-94
2022/11/13 15:53:32;;;;;;;71.97;40.33;;;;;;;;;;5058391;28;20047;-93
2022/11/13 15:56:01;;;;;;;81.65;42.95;;;;;;;;;;5057704;28;20028;-91
2022/11/13 15:58:28;;;;;;;85.07;42.85;;;;;;;;;;5075550;28;20017;-95
2022/11/13 16:00:54;;;;;;;100.13;50.40;;;;;;;;;;5057934;28;20028;-90
2022/11/13 16:03:22;;;;;;;81.18;41.20;;;;;;;;;;5058080;28;20020;-91
2022/11/13 16:05:48;;;;;;;91.18;45.90;;;;;;;;;;5043379;28;20021;-90
2022/11/13 16:08:15;;;;;;;95.32;47.47;;;;;;;;;;5037605;28;20021;-91
2022/11/13 16:10:41;;;;;;;91.32;45.97;;;;;;;;;;5052032;28;20077;-91
2022/11/13 16:13:08;;;;;;;85.95;45.38;;;;;;;;;;5074102;28;20105;-90
2022/11/13 16:15:34;;;;;;;94.68;49.13;;;;;;;;;;5069938;28;20033;-92
2022/11/13 16:18:01;;;;;;;98.60;49.28;;;;;;;;;;5041691;28;20043;-91
2022/11/13 16:20:27;;;;;;;95.40;46.35;;;;;;;;;;5036659;28;20028;-94
2022/11/13 16:22:53;;;;;;;85.03;44.58;;;;;;;;;;5037084;28;20021;-93
2022/11/13 16:25:24;;;;;;;102.13;51.85;;;;;;;;;;5037473;28;20033;-95
2022/11/13 16:27:51;;;;;;;77.53;41.33;;;;;;;;;;5036763;28;20541;-91
2022/11/13 16:30:19;;;;;;;82.78;43.92;;;;;;;;;;5037354;28;20021;-94
2022/11/13 16:32:46;;;;;;;89.70;43.95;;;;;;;;;;5036931;28;20025;-94
2022/11/13 16:35:16;;;;;;;84.63;44.40;;;;;;;;;;5034561;28;20099;-95
2022/11/13 16:37:42;;;;;;;96.00;45.17;;;;;;;;;;5035791;28;20033;-96
2022/11/13 16:40:27;;;;;;;62.75;35.58;;;;;;;;;;5037645;28;20025;-95
2022/11/13 16:42:53;;;;;;;78.47;42.13;;;;;;;;;;5040148;28;20493;-92
2022/11/13 16:45:27;;;;;;;80.85;42.75;;;;;;;;;;5034735;28;20073;-94
2022/11/13 16:47:54;;;;;;;58.90;35.72;;;;;;;;;;5034523;28;20021;-93
2022/11/13 16:50:23;;;;;;;78.95;43.50;;;;;;;;;;5033373;28;20033;-92
2022/11/13 16:52:52;;;;;;;94.00;50.00;;;;;;;;;;5033808;28;20067;-91
2022/11/13 16:55:18;;;;;;;89.45;48.63;;;;;;;;;;5046335;28;20493;-93
2022/11/13 16:57:44;;;;;;;94.43;46.28;;;;;;;;;;5050543;28;20063;-90
2022/11/13 17:00:13;;;;;;;92.30;47.05;;;;;;;;;;5048139;28;20458;-94
2022/11/13 17:02:40;;;;;;;93.35;46.80;;;;;;;;;;5054016;28;20025;-93
2022/11/13 17:05:06;;;;;;;78.78;42.45;;;;;;;;;;5053046;28;20036;-92
2022/11/13 17:07:32;;;;;;;80.63;40.17;;;;;;;;;;5053213;28;20389;-92
2022/11/13 17:09:58;;;;;;;60.22;35.03;;;;;;;;;;5053266;28;20085;-94
2022/11/13 17:12:24;;;;;;;55.30;33.22;;;;;;;;;;5053182;28;20016;-93
2022/11/13 17:14:50;;;;;;;77.93;40.50;;;;;;;;;;5053037;28;20025;-90
2022/11/13 17:17:16;;;;;;;75.53;38.55;;;;;;;;;;5053179;28;20028;-89
2022/11/13 17:19:43;;;;;;;64.05;36.30;;;;;;;;;;5052931;28;20033;-94